sensor_id;sensor_type;location;lat;lon;timestamp;temperature;humidity
28654;DHT22;24320;56.980;24.336;2022-10-31T00:01:26;0.20;99.90
28654;DHT22;24320;56.980;24.336;2022-10-31T00:03:54;0.20;99.90
28654;DHT22;24320;56.980;24.336;2022-10-31T00:06:22;0.30;99.90
28654;DHT22;24320;56.980;24.336;2022-10-31T00:08:55;0.20;99.90
28654;DHT22;24320;56.980;24.336;2022-10-31T00:11:22;0.20;99.90
28654;DHT22;24320;56.980;24.336;2022-10-31T00:13:49;0.20;99.90
28654;DHT22;24320;56.980;24.336;2022-10-31T00:16:18;0.20;99.90
28654;DHT22;24320;56.980;24.336;2022-10-31T00:18:51;0.20;99.90
28654;DHT22;24320;56.980;24.336;2022-10-31T00:21:19;0.20;99.90
28654;DHT22;24320;56.980;24.336;2022-10-31T00:23:46;0.20;99.90
28654;DHT22;24320;56.980;24.336;2022-10-31T00:26:13;0.20;99.90
28654;DHT22;24320;56.980;24.336;2022-10-31T00:28:41;0.20;99.90
28654;DHT22;24320;56.980;24.336;2022-10-31T00:31:10;0.20;99.90
28654;DHT22;24320;56.980;24.336;2022-10-31T00:33:38;0.20;99.90
28654;DHT22;24320;56.980;24.336;2022-10-31T00:36:07;0.20;99.90
28654;DHT22;24320;56.980;24.336;2022-10-31T00:38:34;0.20;99.90
28654;DHT22;24320;56.980;24.336;2022-10-31T00:41:01;0.20;99.90
28654;DHT22;24320;56.980;24.336;2022-10-31T00:43:27;0.20;99.90
28654;DHT22;24320;56.980;24.336;2022-10-31T00:45:54;0.20;99.90
28654;DHT22;24320;56.980;24.336;2022-10-31T00:48:21;0.30;99.90
28654;DHT22;24320;56.980;24.336;2022-10-31T00:50:48;0.30;99.90
28654;DHT22;24320;56.980;24.336;2022-10-31T00:53:15;0.30;99.90
28654;DHT22;24320;56.980;24.336;2022-10-31T00:55:42;0.30;99.90
28654;DHT22;24320;56.980;24.336;2022-10-31T00:58:09;0.20;99.90
28654;DHT22;24320;56.980;24.336;2022-10-31T01:00:36;0.20;99.90
28654;DHT22;24320;56.980;24.336;2022-10-31T01:03:02;0.20;99.90
28654;DHT22;24320;56.980;24.336;2022-10-31T01:05:30;0.20;99.90
28654;DHT22;24320;56.980;24.336;2022-10-31T01:07:57;0.20;99.90
28654;DHT22;24320;56.980;24.336;2022-10-31T01:10:24;0.20;99.90
28654;DHT22;24320;56.980;24.336;2022-10-31T01:12:51;0.20;99.90
28654;DHT22;24320;56.980;24.336;2022-10-31T01:15:21;0.20;99.90
28654;DHT22;24320;56.980;24.336;2022-10-31T01:17:48;0.20;99.90
28654;DHT22;24320;56.980;24.336;2022-10-31T01:20:17;0.20;99.90
28654;DHT22;24320;56.980;24.336;2022-10-31T01:22:44;0.20;99.90
28654;DHT22;24320;56.980;24.336;2022-10-31T01:25:11;0.20;99.90
28654;DHT22;24320;56.980;24.336;2022-10-31T01:27:38;0.10;99.90
28654;DHT22;24320;56.980;24.336;2022-10-31T01:30:05;0.10;99.90
28654;DHT22;24320;56.980;24.336;2022-10-31T01:32:32;0.10;99.90
28654;DHT22;24320;56.980;24.336;2022-10-31T01:34:59;0.10;99.90
28654;DHT22;24320;56.980;24.336;2022-10-31T01:37:26;0.10;99.90
28654;DHT22;24320;56.980;24.336;2022-10-31T01:39:53;0.20;99.90
28654;DHT22;24320;56.980;24.336;2022-10-31T01:42:22;0.20;99.90
28654;DHT22;24320;56.980;24.336;2022-10-31T01:44:58;0.20;99.90
28654;DHT22;24320;56.980;24.336;2022-10-31T01:50:23;0.30;99.90
28654;DHT22;24320;56.980;24.336;2022-10-31T01:52:53;0.30;99.90
28654;DHT22;24320;56.980;24.336;2022-10-31T01:55:30;0.30;99.90
28654;DHT22;24320;56.980;24.336;2022-10-31T01:58:03;0.20;99.90
28654;DHT22;24320;56.980;24.336;2022-10-31T02:00:31;0.20;99.90
28654;DHT22;24320;56.980;24.336;2022-10-31T02:02:58;0.20;99.90
28654;DHT22;24320;56.980;24.336;2022-10-31T02:05:28;0.20;99.90
28654;DHT22;24320;56.980;24.336;2022-10-31T02:08:29;0.20;99.90
28654;DHT22;24320;56.980;24.336;2022-10-31T02:10:57;0.20;99.90
28654;DHT22;24320;56.980;24.336;2022-10-31T02:13:26;0.20;99.90
28654;DHT22;24320;56.980;24.336;2022-10-31T02:15:56;0.20;99.90
28654;DHT22;24320;56.980;24.336;2022-10-31T02:18:28;0.20;99.90
28654;DHT22;24320;56.980;24.336;2022-10-31T02:21:04;0.20;99.90
28654;DHT22;24320;56.980;24.336;2022-10-31T02:45:20;0.20;99.90
28654;DHT22;24320;56.980;24.336;2022-10-31T02:47:49;0.20;99.90
28654;DHT22;24320;56.980;24.336;2022-10-31T02:50:28;0.20;99.90
28654;DHT22;24320;56.980;24.336;2022-10-31T02:52:56;0.20;99.90
28654;DHT22;24320;56.980;24.336;2022-10-31T02:57:58;0.20;99.90
28654;DHT22;24320;56.980;24.336;2022-10-31T03:00:27;0.20;99.90
28654;DHT22;24320;56.980;24.336;2022-10-31T03:03:07;0.20;99.90
28654;DHT22;24320;56.980;24.336;2022-10-31T03:12:14;0.10;99.90
28654;DHT22;24320;56.980;24.336;2022-10-31T03:18:01;0.20;99.90
28654;DHT22;24320;56.980;24.336;2022-10-31T03:20:43;0.10;99.90
28654;DHT22;24320;56.980;24.336;2022-10-31T03:23:15;0.10;99.90
28654;DHT22;24320;56.980;24.336;2022-10-31T03:25:42;0.10;99.90
28654;DHT22;24320;56.980;24.336;2022-10-31T03:28:12;0.10;99.90
28654;DHT22;24320;56.980;24.336;2022-10-31T03:30:42;0.00;99.90
28654;DHT22;24320;56.980;24.336;2022-10-31T03:33:14;0.00;99.90
28654;DHT22;24320;56.980;24.336;2022-10-31T03:35:45;0.00;99.90
28654;DHT22;24320;56.980;24.336;2022-10-31T03:38:14;0.00;99.90
28654;DHT22;24320;56.980;24.336;2022-10-31T03:40:43;-0.10;99.90
28654;DHT22;24320;56.980;24.336;2022-10-31T03:43:16;-0.10;99.90
28654;DHT22;24320;56.980;24.336;2022-10-31T03:45:46;-0.10;99.90
28654;DHT22;24320;56.980;24.336;2022-10-31T03:48:15;-0.20;99.90
28654;DHT22;24320;56.980;24.336;2022-10-31T03:51:12;-0.20;99.90
28654;DHT22;24320;56.980;24.336;2022-10-31T03:53:47;-0.20;99.90
28654;DHT22;24320;56.980;24.336;2022-10-31T03:59:05;-0.20;99.90
28654;DHT22;24320;56.980;24.336;2022-10-31T04:01:35;-0.20;99.90
28654;DHT22;24320;56.980;24.336;2022-10-31T04:04:04;-0.20;99.90
28654;DHT22;24320;56.980;24.336;2022-10-31T04:06:34;-0.30;99.90
28654;DHT22;24320;56.980;24.336;2022-10-31T04:09:03;-0.20;99.90
28654;DHT22;24320;56.980;24.336;2022-10-31T04:11:34;-0.20;99.90
28654;DHT22;24320;56.980;24.336;2022-10-31T04:14:04;-0.10;99.90
28654;DHT22;24320;56.980;24.336;2022-10-31T04:16:31;-0.10;99.90
28654;DHT22;24320;56.980;24.336;2022-10-31T04:18:58;-0.10;99.90
28654;DHT22;24320;56.980;24.336;2022-10-31T04:21:29;-0.20;99.90
28654;DHT22;24320;56.980;24.336;2022-10-31T04:23:56;-0.20;99.90
28654;DHT22;24320;56.980;24.336;2022-10-31T04:26:24;-0.30;99.90
28654;DHT22;24320;56.980;24.336;2022-10-31T04:28:50;-0.30;99.90
28654;DHT22;24320;56.980;24.336;2022-10-31T04:31:18;-0.40;99.90
28654;DHT22;24320;56.980;24.336;2022-10-31T04:33:45;-0.40;99.90
28654;DHT22;24320;56.980;24.336;2022-10-31T04:36:12;-0.40;99.90
28654;DHT22;24320;56.980;24.336;2022-10-31T04:38:39;-0.30;99.90
28654;DHT22;24320;56.980;24.336;2022-10-31T04:41:05;-0.40;99.90
28654;DHT22;24320;56.980;24.336;2022-10-31T04:43:32;-0.40;99.90
28654;DHT22;24320;56.980;24.336;2022-10-31T04:45:59;-0.40;99.90
28654;DHT22;24320;56.980;24.336;2022-10-31T04:48:26;-0.40;99.90
28654;DHT22;24320;56.980;24.336;2022-10-31T04:51:01;-0.40;99.90
28654;DHT22;24320;56.980;24.336;2022-10-31T04:53:28;-0.40;99.90
28654;DHT22;24320;56.980;24.336;2022-10-31T04:55:58;-0.40;99.90
28654;DHT22;24320;56.980;24.336;2022-10-31T04:58:26;-0.40;99.90
28654;DHT22;24320;56.980;24.336;2022-10-31T05:00:54;-0.40;99.90
28654;DHT22;24320;56.980;24.336;2022-10-31T05:03:21;-0.40;99.90
28654;DHT22;24320;56.980;24.336;2022-10-31T05:05:48;-0.30;99.90
28654;DHT22;24320;56.980;24.336;2022-10-31T05:08:15;-0.30;99.90
28654;DHT22;24320;56.980;24.336;2022-10-31T05:10:42;-0.30;99.90
28654;DHT22;24320;56.980;24.336;2022-10-31T05:13:10;-0.20;99.90
28654;DHT22;24320;56.980;24.336;2022-10-31T05:15:37;-0.20;99.90
28654;DHT22;24320;56.980;24.336;2022-10-31T05:18:04;-0.20;99.90
28654;DHT22;24320;56.980;24.336;2022-10-31T05:20:31;-0.20;99.90
28654;DHT22;24320;56.980;24.336;2022-10-31T05:22:59;-0.10;99.90
28654;DHT22;24320;56.980;24.336;2022-10-31T05:25:27;-0.20;99.90
28654;DHT22;24320;56.980;24.336;2022-10-31T05:27:55;-0.20;99.90
28654;DHT22;24320;56.980;24.336;2022-10-31T05:30:28;-0.20;99.90
28654;DHT22;24320;56.980;24.336;2022-10-31T05:32:56;-0.20;99.90
28654;DHT22;24320;56.980;24.336;2022-10-31T05:35:28;-0.10;99.90
28654;DHT22;24320;56.980;24.336;2022-10-31T05:37:56;-0.10;99.90
28654;DHT22;24320;56.980;24.336;2022-10-31T05:40:24;-0.10;99.90
28654;DHT22;24320;56.980;24.336;2022-10-31T05:42:56;0.00;99.90
28654;DHT22;24320;56.980;24.336;2022-10-31T05:45:25;0.00;99.90
28654;DHT22;24320;56.980;24.336;2022-10-31T05:47:58;0.00;99.90
28654;DHT22;24320;56.980;24.336;2022-10-31T05:50:28;0.10;99.90
28654;DHT22;24320;56.980;24.336;2022-10-31T05:52:58;0.20;99.90
28654;DHT22;24320;56.980;24.336;2022-10-31T05:55:25;0.20;99.90
28654;DHT22;24320;56.980;24.336;2022-10-31T05:57:53;0.30;99.90
28654;DHT22;24320;56.980;24.336;2022-10-31T06:00:21;0.40;99.90
28654;DHT22;24320;56.980;24.336;2022-10-31T06:02:48;0.50;99.90
28654;DHT22;24320;56.980;24.336;2022-10-31T06:05:15;0.60;99.90
28654;DHT22;24320;56.980;24.336;2022-10-31T06:07:43;0.70;99.90
28654;DHT22;24320;56.980;24.336;2022-10-31T06:10:10;0.90;99.90
28654;DHT22;24320;56.980;24.336;2022-10-31T06:12:37;1.00;99.90
28654;DHT22;24320;56.980;24.336;2022-10-31T06:15:06;1.10;99.90
28654;DHT22;24320;56.980;24.336;2022-10-31T06:17:34;1.20;99.90
28654;DHT22;24320;56.980;24.336;2022-10-31T06:20:02;1.30;99.90
28654;DHT22;24320;56.980;24.336;2022-10-31T06:22:29;1.40;99.90
28654;DHT22;24320;56.980;24.336;2022-10-31T06:24:56;1.50;99.90
28654;DHT22;24320;56.980;24.336;2022-10-31T06:27:23;1.80;99.90
28654;DHT22;24320;56.980;24.336;2022-10-31T06:29:50;2.00;99.90
28654;DHT22;24320;56.980;24.336;2022-10-31T06:32:17;2.20;99.90
28654;DHT22;24320;56.980;24.336;2022-10-31T06:34:44;2.30;99.90
28654;DHT22;24320;56.980;24.336;2022-10-31T06:37:14;2.50;99.90
28654;DHT22;24320;56.980;24.336;2022-10-31T06:39:41;2.70;99.90
28654;DHT22;24320;56.980;24.336;2022-10-31T06:42:08;3.00;99.90
28654;DHT22;24320;56.980;24.336;2022-10-31T06:44:35;3.30;99.90
28654;DHT22;24320;56.980;24.336;2022-10-31T06:47:02;3.40;99.90
28654;DHT22;24320;56.980;24.336;2022-10-31T06:49:29;3.50;99.90
28654;DHT22;24320;56.980;24.336;2022-10-31T06:51:56;3.80;99.90
28654;DHT22;24320;56.980;24.336;2022-10-31T06:54:23;4.30;99.90
28654;DHT22;24320;56.980;24.336;2022-10-31T06:56:50;4.60;99.90
28654;DHT22;24320;56.980;24.336;2022-10-31T06:59:16;4.70;99.90
28654;DHT22;24320;56.980;24.336;2022-10-31T07:01:44;5.00;99.90
28654;DHT22;24320;56.980;24.336;2022-10-31T07:04:11;5.30;99.90
28654;DHT22;24320;56.980;24.336;2022-10-31T07:06:38;5.60;99.90
28654;DHT22;24320;56.980;24.336;2022-10-31T07:09:05;5.90;99.90
28654;DHT22;24320;56.980;24.336;2022-10-31T07:11:32;6.00;99.90
28654;DHT22;24320;56.980;24.336;2022-10-31T07:13:59;6.20;99.90
28654;DHT22;24320;56.980;24.336;2022-10-31T07:16:26;6.50;99.90
28654;DHT22;24320;56.980;24.336;2022-10-31T07:18:53;6.60;99.90
28654;DHT22;24320;56.980;24.336;2022-10-31T07:21:20;6.80;99.90
28654;DHT22;24320;56.980;24.336;2022-10-31T07:23:50;6.90;99.90
28654;DHT22;24320;56.980;24.336;2022-10-31T07:26:17;6.90;99.90
28654;DHT22;24320;56.980;24.336;2022-10-31T07:28:46;6.90;99.90
28654;DHT22;24320;56.980;24.336;2022-10-31T07:31:13;6.90;99.90
28654;DHT22;24320;56.980;24.336;2022-10-31T07:33:40;6.90;99.90
28654;DHT22;24320;56.980;24.336;2022-10-31T07:36:07;6.70;99.90
28654;DHT22;24320;56.980;24.336;2022-10-31T07:38:34;6.50;99.90
28654;DHT22;24320;56.980;24.336;2022-10-31T07:41:01;6.30;99.90
28654;DHT22;24320;56.980;24.336;2022-10-31T07:43:28;6.10;99.90
28654;DHT22;24320;56.980;24.336;2022-10-31T07:45:55;6.10;99.90
28654;DHT22;24320;56.980;24.336;2022-10-31T07:48:21;6.10;99.90
28654;DHT22;24320;56.980;24.336;2022-10-31T07:50:48;6.20;99.90
28654;DHT22;24320;56.980;24.336;2022-10-31T07:53:16;6.30;99.90
28654;DHT22;24320;56.980;24.336;2022-10-31T07:55:43;6.40;99.90
28654;DHT22;24320;56.980;24.336;2022-10-31T08:00:38;6.50;99.90
28654;DHT22;24320;56.980;24.336;2022-10-31T08:03:06;6.60;99.90
28654;DHT22;24320;56.980;24.336;2022-10-31T08:05:34;6.70;99.90
28654;DHT22;24320;56.980;24.336;2022-10-31T08:08:03;6.90;99.90
28654;DHT22;24320;56.980;24.336;2022-10-31T08:10:30;7.10;99.90
28654;DHT22;24320;56.980;24.336;2022-10-31T08:12:59;7.30;99.90
28654;DHT22;24320;56.980;24.336;2022-10-31T08:15:27;7.50;99.90
28654;DHT22;24320;56.980;24.336;2022-10-31T08:17:54;7.60;99.90
28654;DHT22;24320;56.980;24.336;2022-10-31T08:20:21;7.80;99.90
28654;DHT22;24320;56.980;24.336;2022-10-31T08:23:00;7.90;99.90
28654;DHT22;24320;56.980;24.336;2022-10-31T08:25:28;8.10;99.90
28654;DHT22;24320;56.980;24.336;2022-10-31T08:28:03;8.30;99.90
28654;DHT22;24320;56.980;24.336;2022-10-31T08:30:31;8.40;99.90
28654;DHT22;24320;56.980;24.336;2022-10-31T08:33:00;8.60;99.90
28654;DHT22;24320;56.980;24.336;2022-10-31T08:35:27;8.70;99.90
28654;DHT22;24320;56.980;24.336;2022-10-31T08:37:56;8.80;99.90
28654;DHT22;24320;56.980;24.336;2022-10-31T08:40:24;9.00;99.90
28654;DHT22;24320;56.980;24.336;2022-10-31T08:42:59;9.20;99.90
28654;DHT22;24320;56.980;24.336;2022-10-31T08:45:27;9.30;99.90
28654;DHT22;24320;56.980;24.336;2022-10-31T08:47:58;9.40;99.90
28654;DHT22;24320;56.980;24.336;2022-10-31T08:50:27;9.40;99.90
28654;DHT22;24320;56.980;24.336;2022-10-31T08:53:03;9.50;99.90
28654;DHT22;24320;56.980;24.336;2022-10-31T08:55:33;9.70;99.90
28654;DHT22;24320;56.980;24.336;2022-10-31T08:58:02;9.90;99.90
28654;DHT22;24320;56.980;24.336;2022-10-31T09:00:29;10.10;99.90
28654;DHT22;24320;56.980;24.336;2022-10-31T09:02:57;10.10;99.90
28654;DHT22;24320;56.980;24.336;2022-10-31T09:05:25;10.20;99.90
28654;DHT22;24320;56.980;24.336;2022-10-31T09:07:56;10.30;99.90
28654;DHT22;24320;56.980;24.336;2022-10-31T09:10:28;10.50;99.90
28654;DHT22;24320;56.980;24.336;2022-10-31T09:13:04;10.80;99.90
28654;DHT22;24320;56.980;24.336;2022-10-31T09:15:36;11.10;99.90
28654;DHT22;24320;56.980;24.336;2022-10-31T09:18:03;11.30;99.90
28654;DHT22;24320;56.980;24.336;2022-10-31T09:20:31;11.30;99.90
28654;DHT22;24320;56.980;24.336;2022-10-31T09:23:01;11.40;99.90
28654;DHT22;24320;56.980;24.336;2022-10-31T09:25:28;11.50;99.90
28654;DHT22;24320;56.980;24.336;2022-10-31T09:27:56;11.70;99.90
28654;DHT22;24320;56.980;24.336;2022-10-31T09:30:26;11.90;99.90
28654;DHT22;24320;56.980;24.336;2022-10-31T09:32:57;12.00;99.90
28654;DHT22;24320;56.980;24.336;2022-10-31T09:35:25;12.00;99.90
28654;DHT22;24320;56.980;24.336;2022-10-31T09:38:00;12.00;99.90
28654;DHT22;24320;56.980;24.336;2022-10-31T09:43:01;12.00;99.90
28654;DHT22;24320;56.980;24.336;2022-10-31T09:50:46;12.10;99.90
28654;DHT22;24320;56.980;24.336;2022-10-31T09:56:10;11.70;99.90
28654;DHT22;24320;56.980;24.336;2022-10-31T09:58:46;11.60;99.90
28654;DHT22;24320;56.980;24.336;2022-10-31T10:04:01;11.10;99.90
28654;DHT22;24320;56.980;24.336;2022-10-31T10:06:33;10.90;99.90
28654;DHT22;24320;56.980;24.336;2022-10-31T10:09:01;10.90;99.90
28654;DHT22;24320;56.980;24.336;2022-10-31T10:14:14;11.10;99.90
28654;DHT22;24320;56.980;24.336;2022-10-31T10:28:41;11.50;99.90
28654;DHT22;24320;56.980;24.336;2022-10-31T10:31:14;11.70;99.90
28654;DHT22;24320;56.980;24.336;2022-10-31T10:36:38;12.10;99.90
28654;DHT22;24320;56.980;24.336;2022-10-31T10:41:57;12.00;99.90
28654;DHT22;24320;56.980;24.336;2022-10-31T10:44:47;12.00;99.90
28654;DHT22;24320;56.980;24.336;2022-10-31T10:47:43;12.00;99.90
28654;DHT22;24320;56.980;24.336;2022-10-31T10:50:18;12.10;99.90
28654;DHT22;24320;56.980;24.336;2022-10-31T10:58:34;11.90;99.90
28654;DHT22;24320;56.980;24.336;2022-10-31T11:01:13;11.80;99.90
28654;DHT22;24320;56.980;24.336;2022-10-31T11:03:41;11.80;99.90
28654;DHT22;24320;56.980;24.336;2022-10-31T11:06:22;11.80;99.90
28654;DHT22;24320;56.980;24.336;2022-10-31T11:08:52;11.60;99.90
28654;DHT22;24320;56.980;24.336;2022-10-31T11:14:03;11.50;99.90
28654;DHT22;24320;56.980;24.336;2022-10-31T11:16:39;11.40;99.90
28654;DHT22;24320;56.980;24.336;2022-10-31T11:21:43;11.40;99.90
28654;DHT22;24320;56.980;24.336;2022-10-31T11:24:26;11.50;99.90
28654;DHT22;24320;56.980;24.336;2022-10-31T11:27:16;11.50;99.90
28654;DHT22;24320;56.980;24.336;2022-10-31T11:29:46;11.60;99.90
28654;DHT22;24320;56.980;24.336;2022-10-31T11:32:24;11.60;99.90
28654;DHT22;24320;56.980;24.336;2022-10-31T11:34:54;11.70;99.90
28654;DHT22;24320;56.980;24.336;2022-10-31T11:37:26;11.70;99.90
28654;DHT22;24320;56.980;24.336;2022-10-31T11:39:56;11.70;99.90
28654;DHT22;24320;56.980;24.336;2022-10-31T11:42:35;11.70;99.90
28654;DHT22;24320;56.980;24.336;2022-10-31T11:45:13;11.60;99.90
28654;DHT22;24320;56.980;24.336;2022-10-31T11:47:50;11.60;99.90
28654;DHT22;24320;56.980;24.336;2022-10-31T11:50:29;11.60;99.90
28654;DHT22;24320;56.980;24.336;2022-10-31T11:52:57;11.60;99.90
28654;DHT22;24320;56.980;24.336;2022-10-31T11:55:38;11.60;99.90
28654;DHT22;24320;56.980;24.336;2022-10-31T11:58:19;11.70;99.90
28654;DHT22;24320;56.980;24.336;2022-10-31T12:00:50;11.70;99.90
28654;DHT22;24320;56.980;24.336;2022-10-31T12:03:26;11.70;99.90
28654;DHT22;24320;56.980;24.336;2022-10-31T12:06:02;11.60;99.90
28654;DHT22;24320;56.980;24.336;2022-10-31T12:08:32;11.60;99.90
28654;DHT22;24320;56.980;24.336;2022-10-31T12:22:50;11.60;99.90
28654;DHT22;24320;56.980;24.336;2022-10-31T12:31:23;11.50;99.90
28654;DHT22;24320;56.980;24.336;2022-10-31T12:39:17;11.30;99.90
28654;DHT22;24320;56.980;24.336;2022-10-31T12:47:53;11.40;99.90
28654;DHT22;24320;56.980;24.336;2022-10-31T12:53:14;11.40;99.90
28654;DHT22;24320;56.980;24.336;2022-10-31T13:01:12;11.30;99.90
28654;DHT22;24320;56.980;24.336;2022-10-31T13:04:02;11.30;99.90
28654;DHT22;24320;56.980;24.336;2022-10-31T13:06:37;11.30;99.90
28654;DHT22;24320;56.980;24.336;2022-10-31T13:09:15;11.30;99.90
28654;DHT22;24320;56.980;24.336;2022-10-31T13:11:56;11.30;99.90
28654;DHT22;24320;56.980;24.336;2022-10-31T13:14:25;11.30;99.90
28654;DHT22;24320;56.980;24.336;2022-10-31T13:16:54;11.40;99.90
28654;DHT22;24320;56.980;24.336;2022-10-31T13:19:41;11.40;99.90
28654;DHT22;24320;56.980;24.336;2022-10-31T13:22:21;11.30;99.90
28654;DHT22;24320;56.980;24.336;2022-10-31T13:30:32;11.20;99.90
28654;DHT22;24320;56.980;24.336;2022-10-31T13:33:13;11.10;99.90
28654;DHT22;24320;56.980;24.336;2022-10-31T13:36:07;11.00;99.90
28654;DHT22;24320;56.980;24.336;2022-10-31T13:44:22;10.70;99.90
28654;DHT22;24320;56.980;24.336;2022-10-31T13:46:58;10.50;99.90
28654;DHT22;24320;56.980;24.336;2022-10-31T13:54:42;10.00;99.90
28654;DHT22;24320;56.980;24.336;2022-10-31T13:59:52;9.70;99.90
28654;DHT22;24320;56.980;24.336;2022-10-31T14:02:23;9.60;99.90
28654;DHT22;24320;56.980;24.336;2022-10-31T14:04:58;9.50;99.90
28654;DHT22;24320;56.980;24.336;2022-10-31T14:07:27;9.40;99.90
28654;DHT22;24320;56.980;24.336;2022-10-31T14:10:27;9.20;99.90
28654;DHT22;24320;56.980;24.336;2022-10-31T14:13:05;9.00;99.90
28654;DHT22;24320;56.980;24.336;2022-10-31T14:15:33;8.90;99.90
28654;DHT22;24320;56.980;24.336;2022-10-31T14:18:03;8.70;99.90
28654;DHT22;24320;56.980;24.336;2022-10-31T14:23:35;8.40;99.90
28654;DHT22;24320;56.980;24.336;2022-10-31T14:28:54;8.20;99.90
28654;DHT22;24320;56.980;24.336;2022-10-31T14:31:34;8.00;99.90
28654;DHT22;24320;56.980;24.336;2022-10-31T14:34:19;7.90;99.90
28654;DHT22;24320;56.980;24.336;2022-10-31T14:51:57;7.10;99.90
28654;DHT22;24320;56.980;24.336;2022-10-31T14:54:30;7.00;99.90
28654;DHT22;24320;56.980;24.336;2022-10-31T14:57:19;6.90;99.90
28654;DHT22;24320;56.980;24.336;2022-10-31T14:59:54;6.90;99.90
28654;DHT22;24320;56.980;24.336;2022-10-31T15:05:10;6.70;99.90
28654;DHT22;24320;56.980;24.336;2022-10-31T15:07:55;6.70;99.90
28654;DHT22;24320;56.980;24.336;2022-10-31T15:10:31;6.60;99.90
28654;DHT22;24320;56.980;24.336;2022-10-31T15:13:19;6.40;99.90
28654;DHT22;24320;56.980;24.336;2022-10-31T15:15:49;6.30;99.90
28654;DHT22;24320;56.980;24.336;2022-10-31T15:20:51;6.10;99.90
28654;DHT22;24320;56.980;24.336;2022-10-31T15:23:28;6.00;99.90
28654;DHT22;24320;56.980;24.336;2022-10-31T15:25:59;5.90;99.90
28654;DHT22;24320;56.980;24.336;2022-10-31T15:28:27;5.90;99.90
28654;DHT22;24320;56.980;24.336;2022-10-31T15:30:59;5.80;99.90
28654;DHT22;24320;56.980;24.336;2022-10-31T15:33:28;5.70;99.90
28654;DHT22;24320;56.980;24.336;2022-10-31T15:36:03;5.70;99.90
28654;DHT22;24320;56.980;24.336;2022-10-31T15:38:30;5.60;99.90
28654;DHT22;24320;56.980;24.336;2022-10-31T15:41:03;5.50;99.90
28654;DHT22;24320;56.980;24.336;2022-10-31T15:43:35;5.50;99.90
28654;DHT22;24320;56.980;24.336;2022-10-31T15:46:06;5.50;99.90
28654;DHT22;24320;56.980;24.336;2022-10-31T15:48:33;5.40;99.90
28654;DHT22;24320;56.980;24.336;2022-10-31T15:51:02;5.40;99.90
28654;DHT22;24320;56.980;24.336;2022-10-31T15:53:43;5.30;99.90
28654;DHT22;24320;56.980;24.336;2022-10-31T15:56:18;5.20;99.90
28654;DHT22;24320;56.980;24.336;2022-10-31T15:58:48;5.20;99.90
28654;DHT22;24320;56.980;24.336;2022-10-31T16:01:31;5.10;99.90
28654;DHT22;24320;56.980;24.336;2022-10-31T16:04:22;5.00;99.90
28654;DHT22;24320;56.980;24.336;2022-10-31T16:06:59;5.00;99.90
28654;DHT22;24320;56.980;24.336;2022-10-31T16:09:27;4.90;99.90
28654;DHT22;24320;56.980;24.336;2022-10-31T16:11:56;4.80;99.90
28654;DHT22;24320;56.980;24.336;2022-10-31T16:14:27;4.80;99.90
28654;DHT22;24320;56.980;24.336;2022-10-31T16:16:57;4.80;99.90
28654;DHT22;24320;56.980;24.336;2022-10-31T16:19:28;4.80;99.90
28654;DHT22;24320;56.980;24.336;2022-10-31T16:22:09;4.70;99.90
28654;DHT22;24320;56.980;24.336;2022-10-31T16:25:03;4.70;99.90
28654;DHT22;24320;56.980;24.336;2022-10-31T16:27:34;4.60;99.90
28654;DHT22;24320;56.980;24.336;2022-10-31T16:30:25;4.60;99.90
28654;DHT22;24320;56.980;24.336;2022-10-31T16:32:58;4.60;99.90
28654;DHT22;24320;56.980;24.336;2022-10-31T16:35:35;4.60;99.90
28654;DHT22;24320;56.980;24.336;2022-10-31T16:38:02;4.60;99.90
28654;DHT22;24320;56.980;24.336;2022-10-31T16:40:30;4.50;99.90
28654;DHT22;24320;56.980;24.336;2022-10-31T16:42:59;4.50;99.90
28654;DHT22;24320;56.980;24.336;2022-10-31T16:45:28;4.50;99.90
28654;DHT22;24320;56.980;24.336;2022-10-31T16:48:12;4.50;99.90
28654;DHT22;24320;56.980;24.336;2022-10-31T16:50:44;4.50;99.90
28654;DHT22;24320;56.980;24.336;2022-10-31T16:53:10;4.40;99.90
28654;DHT22;24320;56.980;24.336;2022-10-31T16:55:57;4.40;99.90
28654;DHT22;24320;56.980;24.336;2022-10-31T16:58:25;4.40;99.90
28654;DHT22;24320;56.980;24.336;2022-10-31T17:00:52;4.30;99.90
28654;DHT22;24320;56.980;24.336;2022-10-31T17:03:20;4.30;99.90
28654;DHT22;24320;56.980;24.336;2022-10-31T17:05:47;4.30;99.90
28654;DHT22;24320;56.980;24.336;2022-10-31T17:08:15;4.30;99.90
28654;DHT22;24320;56.980;24.336;2022-10-31T17:10:43;4.20;99.90
28654;DHT22;24320;56.980;24.336;2022-10-31T17:13:16;4.20;99.90
28654;DHT22;24320;56.980;24.336;2022-10-31T17:15:47;4.30;99.90
28654;DHT22;24320;56.980;24.336;2022-10-31T17:18:16;4.30;99.90
28654;DHT22;24320;56.980;24.336;2022-10-31T17:20:48;4.40;99.90
28654;DHT22;24320;56.980;24.336;2022-10-31T17:23:16;4.40;99.90
28654;DHT22;24320;56.980;24.336;2022-10-31T17:25:43;4.40;99.90
28654;DHT22;24320;56.980;24.336;2022-10-31T17:28:12;4.50;99.90
28654;DHT22;24320;56.980;24.336;2022-10-31T17:30:41;4.60;99.90
28654;DHT22;24320;56.980;24.336;2022-10-31T17:33:12;4.70;99.90
28654;DHT22;24320;56.980;24.336;2022-10-31T17:35:41;4.80;99.90
28654;DHT22;24320;56.980;24.336;2022-10-31T17:38:08;4.80;99.90
28654;DHT22;24320;56.980;24.336;2022-10-31T17:40:37;4.80;99.90
28654;DHT22;24320;56.980;24.336;2022-10-31T17:43:04;4.90;99.90
28654;DHT22;24320;56.980;24.336;2022-10-31T17:45:32;5.00;99.90
28654;DHT22;24320;56.980;24.336;2022-10-31T17:47:58;5.00;99.90
28654;DHT22;24320;56.980;24.336;2022-10-31T17:50:26;5.00;99.90
28654;DHT22;24320;56.980;24.336;2022-10-31T17:52:53;5.10;99.90
28654;DHT22;24320;56.980;24.336;2022-10-31T17:55:20;5.10;99.90
28654;DHT22;24320;56.980;24.336;2022-10-31T17:57:47;5.20;99.90
28654;DHT22;24320;56.980;24.336;2022-10-31T18:00:17;5.20;99.90
28654;DHT22;24320;56.980;24.336;2022-10-31T18:02:45;5.20;99.90
28654;DHT22;24320;56.980;24.336;2022-10-31T18:05:12;5.20;99.90
28654;DHT22;24320;56.980;24.336;2022-10-31T18:07:39;5.20;99.90
28654;DHT22;24320;56.980;24.336;2022-10-31T18:10:06;5.30;99.90
28654;DHT22;24320;56.980;24.336;2022-10-31T18:12:37;5.30;99.90
28654;DHT22;24320;56.980;24.336;2022-10-31T18:15:05;5.30;99.90
28654;DHT22;24320;56.980;24.336;2022-10-31T18:17:32;5.40;99.90
28654;DHT22;24320;56.980;24.336;2022-10-31T18:20:03;5.40;99.90
28654;DHT22;24320;56.980;24.336;2022-10-31T18:22:31;5.40;99.90
28654;DHT22;24320;56.980;24.336;2022-10-31T18:24:58;5.50;99.90
28654;DHT22;24320;56.980;24.336;2022-10-31T18:27:28;5.50;99.90
28654;DHT22;24320;56.980;24.336;2022-10-31T18:29:55;5.50;99.90
28654;DHT22;24320;56.980;24.336;2022-10-31T18:32:22;5.50;99.90
28654;DHT22;24320;56.980;24.336;2022-10-31T18:34:48;5.60;99.90
28654;DHT22;24320;56.980;24.336;2022-10-31T18:37:15;5.60;99.90